Time;durP1;ratioP1;P1;durP2;ratioP2;P2;SDS_P1;SDS_P2;PMS_P1;PMS_P2;Temp;Humidity;BMP_temperature;BMP_pressure;BME280_temperature;BME280_humidity;BME280_pressure;Samples;Min_cycle;Max_cycle;Signal;HPM_P1;HPM_P2
2022/03/21 00:01:38;;;;;;;14.87;10.63;;;;;;;;;;5004355;28;20479;-77
2022/03/21 00:04:05;;;;;;;14.93;11.30;;;;;;;;;;5011884;28;20449;-77
2022/03/21 00:06:32;;;;;;;17.13;10.67;;;;;;;;;;5011763;28;20449;-77
2022/03/21 00:09:00;;;;;;;12.83;10.60;;;;;;;;;;5010947;28;20446;-78
2022/03/21 00:11:27;;;;;;;12.70;11.00;;;;;;;;;;5012318;28;20806;-79
2022/03/21 00:13:56;;;;;;;15.67;10.63;;;;;;;;;;5012858;28;20467;-78
2022/03/21 00:16:24;;;;;;;13.10;10.73;;;;;;;;;;5013735;28;20451;-78
2022/03/21 00:18:52;;;;;;;16.10;11.73;;;;;;;;;;5011301;28;20517;-78
2022/03/21 00:21:19;;;;;;;16.33;11.27;;;;;;;;;;4999356;28;20840;-80
2022/03/21 00:23:48;;;;;;;14.90;11.30;;;;;;;;;;4997655;28;20993;-79
2022/03/21 00:26:16;;;;;;;22.27;13.07;;;;;;;;;;4992596;28;20448;-78
2022/03/21 00:28:43;;;;;;;16.30;14.20;;;;;;;;;;4991652;28;20444;-78
2022/03/21 00:31:11;;;;;;;17.57;12.23;;;;;;;;;;4992031;28;20444;-78
2022/03/21 00:33:38;;;;;;;20.80;13.00;;;;;;;;;;4992214;28;20490;-77
2022/03/21 00:36:08;;;;;;;17.90;11.93;;;;;;;;;;4992989;28;20811;-80
2022/03/21 00:38:36;;;;;;;16.23;11.67;;;;;;;;;;4993581;28;20452;-78
2022/03/21 00:41:04;;;;;;;15.20;11.43;;;;;;;;;;4993627;28;20487;-78
2022/03/21 00:43:31;;;;;;;17.07;10.60;;;;;;;;;;4998684;28;20722;-79
2022/03/21 00:45:59;;;;;;;16.43;10.80;;;;;;;;;;4999368;28;20450;-78
2022/03/21 00:48:28;;;;;;;15.20;10.33;;;;;;;;;;5010182;28;20558;-79
2022/03/21 00:50:56;;;;;;;16.50;10.73;;;;;;;;;;5009616;28;20435;-79
2022/03/21 00:53:23;;;;;;;14.60;10.03;;;;;;;;;;5010258;28;20462;-79
2022/03/21 00:55:52;;;;;;;15.10;11.00;;;;;;;;;;5011166;28;20447;-77
2022/03/21 00:58:20;;;;;;;14.20;10.70;;;;;;;;;;4994255;28;20459;-78
2022/03/21 01:00:47;;;;;;;14.37;11.40;;;;;;;;;;4983091;28;20479;-77
2022/03/21 01:03:14;;;;;;;19.50;10.57;;;;;;;;;;4998373;28;20461;-78
2022/03/21 01:05:43;;;;;;;17.00;10.77;;;;;;;;;;5010318;28;20455;-79
2022/03/21 01:08:10;;;;;;;14.07;11.37;;;;;;;;;;5010526;28;20559;-77
2022/03/21 01:10:37;;;;;;;18.17;12.33;;;;;;;;;;5010730;28;20951;-77
2022/03/21 01:13:05;;;;;;;14.20;10.67;;;;;;;;;;5011193;28;20828;-78
2022/03/21 01:15:32;;;;;;;15.63;10.13;;;;;;;;;;5006092;28;20478;-81
2022/03/21 01:18:00;;;;;;;15.70;10.70;;;;;;;;;;4975845;28;20887;-78
2022/03/21 01:20:27;;;;;;;14.57;11.03;;;;;;;;;;4977327;28;20878;-79
2022/03/21 01:22:56;;;;;;;14.63;11.10;;;;;;;;;;4986507;28;20483;-78
2022/03/21 01:25:23;;;;;;;13.13;10.67;;;;;;;;;;4994877;28;20447;-77
2022/03/21 01:27:50;;;;;;;17.17;10.73;;;;;;;;;;4990917;28;20773;-78
2022/03/21 01:30:18;;;;;;;15.43;11.70;;;;;;;;;;4989560;28;20459;-78
2022/03/21 01:32:45;;;;;;;16.10;12.27;;;;;;;;;;4990922;28;20475;-76
2022/03/21 01:35:13;;;;;;;14.63;11.50;;;;;;;;;;4990569;28;20538;-79
2022/03/21 01:37:41;;;;;;;13.13;9.93;;;;;;;;;;5006906;28;20449;-76
2022/03/21 01:40:10;;;;;;;14.30;10.73;;;;;;;;;;5012361;28;20446;-77
2022/03/21 01:42:39;;;;;;;14.53;10.50;;;;;;;;;;5008373;28;20477;-77
2022/03/21 01:45:07;;;;;;;13.50;11.10;;;;;;;;;;4998528;28;20525;-77
2022/03/21 01:47:34;;;;;;;17.63;11.60;;;;;;;;;;5002907;28;20454;-78
2022/03/21 01:50:02;;;;;;;16.20;11.07;;;;;;;;;;5010536;28;20893;-77
2022/03/21 01:52:29;;;;;;;16.40;11.83;;;;;;;;;;5009012;28;20972;-77
2022/03/21 01:57:40;;;;;;;16.40;11.63;;;;;;;;;;5010645;28;20423;-78
2022/03/21 02:00:08;;;;;;;15.77;11.47;;;;;;;;;;5011489;28;20466;-79
2022/03/21 02:02:35;;;;;;;15.70;12.60;;;;;;;;;;5011086;28;20467;-78
2022/03/21 02:05:02;;;;;;;16.20;10.40;;;;;;;;;;5009430;28;20794;-77
2022/03/21 02:07:29;;;;;;;12.80;10.00;;;;;;;;;;4998093;28;20451;-77
2022/03/21 02:09:56;;;;;;;17.40;10.87;;;;;;;;;;5001179;28;20442;-78
2022/03/21 02:12:23;;;;;;;14.90;10.40;;;;;;;;;;5010145;28;20459;-76
2022/03/21 02:14:52;;;;;;;22.13;12.70;;;;;;;;;;5010042;28;20446;-79
2022/03/21 02:17:20;;;;;;;17.37;11.80;;;;;;;;;;5010396;28;20447;-77
2022/03/21 02:19:48;;;;;;;13.97;10.60;;;;;;;;;;5010652;28;20451;-77
2022/03/21 02:22:20;;;;;;;14.27;9.90;;;;;;;;;;5011122;28;20499;-76
2022/03/21 02:24:53;;;;;;;14.57;10.37;;;;;;;;;;5012218;28;20447;-77
2022/03/21 02:27:22;;;;;;;15.23;10.97;;;;;;;;;;5010838;28;20454;-76
2022/03/21 02:29:50;;;;;;;16.13;11.13;;;;;;;;;;4997793;28;20937;-79
2022/03/21 02:32:17;;;;;;;15.80;10.17;;;;;;;;;;5002994;28;20451;-79
2022/03/21 02:34:45;;;;;;;11.77;9.70;;;;;;;;;;5012877;28;20980;-77
2022/03/21 02:37:14;;;;;;;16.83;11.70;;;;;;;;;;5013415;28;20453;-76
2022/03/21 02:39:42;;;;;;;15.87;11.70;;;;;;;;;;5013702;28;20450;-81
2022/03/21 02:42:10;;;;;;;16.90;11.13;;;;;;;;;;5013621;28;20483;-77
2022/03/21 02:44:39;;;;;;;16.30;11.17;;;;;;;;;;5014474;28;20818;-76
2022/03/21 02:47:07;;;;;;;16.80;10.97;;;;;;;;;;5012797;28;20447;-77
2022/03/21 02:49:34;;;;;;;17.53;11.40;;;;;;;;;;5001410;28;20459;-78
2022/03/21 02:52:04;;;;;;;13.87;11.00;;;;;;;;;;4986410;28;20474;-78
2022/03/21 02:54:31;;;;;;;14.60;11.00;;;;;;;;;;4995620;28;20461;-78
2022/03/21 02:56:59;;;;;;;15.60;11.40;;;;;;;;;;4995393;28;20451;-77
2022/03/21 02:59:26;;;;;;;16.67;10.40;;;;;;;;;;4995597;28;20461;-77
2022/03/21 03:01:55;;;;;;;18.20;12.20;;;;;;;;;;5012914;28;20673;-77
2022/03/21 03:04:22;;;;;;;16.27;10.60;;;;;;;;;;5010553;28;20813;-79
2022/03/21 03:06:49;;;;;;;15.25;11.43;;;;;;;;;;5001146;28;20435;-79
2022/03/21 03:09:16;;;;;;;18.33;11.47;;;;;;;;;;5004604;28;20559;-76
2022/03/21 03:11:44;;;;;;;18.10;11.53;;;;;;;;;;5012564;28;20449;-78
2022/03/21 03:14:11;;;;;;;14.40;10.47;;;;;;;;;;5012041;28;20741;-78
2022/03/21 03:16:38;;;;;;;14.57;10.95;;;;;;;;;;5012313;28;20438;-77
2022/03/21 03:19:07;;;;;;;15.80;11.00;;;;;;;;;;5013399;28;20211;-77
2022/03/21 03:21:36;;;;;;;15.93;10.87;;;;;;;;;;5009735;28;20216;-77
2022/03/21 03:24:04;;;;;;;15.33;11.53;;;;;;;;;;5000232;28;20475;-79
2022/03/21 03:26:31;;;;;;;15.57;11.00;;;;;;;;;;5004462;28;20439;-77
2022/03/21 03:28:58;;;;;;;17.90;10.07;;;;;;;;;;5012473;28;20450;-76
2022/03/21 03:31:25;;;;;;;20.20;11.20;;;;;;;;;;5011906;28;20801;-77
2022/03/21 03:33:53;;;;;;;14.43;10.30;;;;;;;;;;5012341;28;20842;-78
2022/03/21 03:36:22;;;;;;;16.02;11.40;;;;;;;;;;5012603;28;20204;-78
2022/03/21 03:38:51;;;;;;;18.27;11.03;;;;;;;;;;5013251;28;20563;-77
2022/03/21 03:41:19;;;;;;;18.30;12.20;;;;;;;;;;4998118;28;20487;-77
2022/03/21 03:43:47;;;;;;;19.23;12.17;;;;;;;;;;4995718;28;20841;-77
2022/03/21 03:46:16;;;;;;;17.20;11.55;;;;;;;;;;4993735;28;20506;-77
2022/03/21 03:48:43;;;;;;;16.05;11.02;;;;;;;;;;4992439;28;20200;-76
2022/03/21 03:51:10;;;;;;;13.23;10.65;;;;;;;;;;4992559;28;20205;-79
2022/03/21 03:53:39;;;;;;;19.13;11.60;;;;;;;;;;4992991;28;20224;-77
2022/03/21 03:56:07;;;;;;;18.00;10.93;;;;;;;;;;4995478;28;20482;-79
2022/03/21 03:58:34;;;;;;;17.67;12.00;;;;;;;;;;5014164;28;20232;-77
2022/03/21 04:01:04;;;;;;;18.73;13.00;;;;;;;;;;4996533;28;20200;-77
2022/03/21 04:06:12;;;;;;;16.97;12.77;;;;;;;;;;4984234;28;20270;-77
2022/03/21 04:08:41;;;;;;;17.80;12.60;;;;;;;;;;4992761;28;20531;-77
2022/03/21 04:11:08;;;;;;;17.88;13.50;;;;;;;;;;4991821;28;20447;-78
2022/03/21 04:13:35;;;;;;;18.07;12.10;;;;;;;;;;4991426;28;20221;-78
2022/03/21 04:16:03;;;;;;;18.90;12.60;;;;;;;;;;4992431;28;20444;-79
2022/03/21 04:18:30;;;;;;;16.90;12.50;;;;;;;;;;4991992;28;20578;-76
2022/03/21 04:20:57;;;;;;;19.00;11.85;;;;;;;;;;4995735;28;20767;-77
2022/03/21 04:23:25;;;;;;;20.83;13.40;;;;;;;;;;4999131;28;20287;-78
2022/03/21 04:25:53;;;;;;;17.10;13.50;;;;;;;;;;5004914;28;20215;-77
2022/03/21 04:28:20;;;;;;;18.20;12.10;;;;;;;;;;5010644;28;20449;-76
2022/03/21 04:30:48;;;;;;;16.20;12.97;;;;;;;;;;5010960;28;20447;-76
2022/03/21 04:33:15;;;;;;;19.23;13.60;;;;;;;;;;5010855;28;20824;-79
2022/03/21 04:35:43;;;;;;;18.17;13.13;;;;;;;;;;4994225;28;20208;-76
2022/03/21 04:38:14;;;;;;;21.33;14.68;;;;;;;;;;5012508;28;20565;-78
2022/03/21 04:40:41;;;;;;;18.73;14.02;;;;;;;;;;4982820;28;20208;-77
2022/03/21 04:43:11;;;;;;;20.33;15.18;;;;;;;;;;4998629;28;20324;-77
2022/03/21 04:45:40;;;;;;;23.50;14.60;;;;;;;;;;4991053;28;20578;-76
2022/03/21 04:48:08;;;;;;;18.83;14.25;;;;;;;;;;4991164;28;20215;-77
2022/03/21 04:50:35;;;;;;;23.40;15.25;;;;;;;;;;4991808;28;20212;-78
2022/03/21 04:53:02;;;;;;;20.35;15.15;;;;;;;;;;4991867;28;20225;-78
2022/03/21 04:55:32;;;;;;;24.80;16.27;;;;;;;;;;4975014;28;20200;-79
2022/03/21 04:57:59;;;;;;;23.45;15.85;;;;;;;;;;4993497;28;20650;-77
2022/03/21 05:00:28;;;;;;;31.52;18.25;;;;;;;;;;4976144;28;20204;-77
2022/03/21 05:02:55;;;;;;;26.00;17.15;;;;;;;;;;4997345;28;20236;-77
2022/03/21 05:05:23;;;;;;;25.20;15.88;;;;;;;;;;4999722;28;20255;-75
2022/03/21 05:07:52;;;;;;;22.80;17.13;;;;;;;;;;5010592;28;20265;-77
2022/03/21 05:10:21;;;;;;;26.33;16.08;;;;;;;;;;5010648;28;20306;-78
2022/03/21 05:12:48;;;;;;;23.88;15.20;;;;;;;;;;5010533;28;20496;-79
2022/03/21 05:15:15;;;;;;;22.75;16.73;;;;;;;;;;5010237;28;20196;-78
2022/03/21 05:17:44;;;;;;;20.88;17.10;;;;;;;;;;5008003;28;20205;-76
2022/03/21 05:20:16;;;;;;;23.38;15.10;;;;;;;;;;4998169;28;20210;-76
2022/03/21 05:22:43;;;;;;;23.77;15.60;;;;;;;;;;4995203;28;20269;-79
2022/03/21 05:35:56;;;;;;;22.98;16.60;;;;;;;;;;4996689;28;20275;-76
2022/03/21 05:38:24;;;;;;;21.90;16.55;;;;;;;;;;4998398;28;20196;-77
2022/03/21 05:40:52;;;;;;;28.73;15.52;;;;;;;;;;4973208;28;20291;-77
2022/03/21 05:43:19;;;;;;;24.77;16.27;;;;;;;;;;4973190;28;20232;-78
2022/03/21 05:45:49;;;;;;;24.38;15.35;;;;;;;;;;4973690;28;20213;-76
2022/03/21 05:50:58;;;;;;;22.85;16.77;;;;;;;;;;4990385;28;20737;-79
2022/03/21 05:53:25;;;;;;;30.92;16.65;;;;;;;;;;4995652;28;20216;-77
2022/03/21 05:55:55;;;;;;;23.90;17.45;;;;;;;;;;4998364;28;20866;-78
2022/03/21 05:58:22;;;;;;;23.45;16.70;;;;;;;;;;4975628;28;20219;-79
2022/03/21 06:00:49;;;;;;;23.25;16.35;;;;;;;;;;4990174;28;20607;-78
2022/03/21 06:03:18;;;;;;;24.42;18.70;;;;;;;;;;4990769;28;20225;-78
2022/03/21 06:05:45;;;;;;;27.23;16.75;;;;;;;;;;4991791;28;20208;-78
2022/03/21 06:08:12;;;;;;;24.60;17.80;;;;;;;;;;4979120;28;20215;-78
2022/03/21 06:10:44;;;;;;;22.20;16.33;;;;;;;;;;5015881;28;20200;-78
2022/03/21 06:13:11;;;;;;;26.45;17.08;;;;;;;;;;5015749;28;20270;-79
2022/03/21 06:15:40;;;;;;;24.98;17.65;;;;;;;;;;5008714;28;20204;-78
2022/03/21 06:18:10;;;;;;;22.88;16.70;;;;;;;;;;5003043;28;20200;-77
2022/03/21 06:20:39;;;;;;;24.52;16.75;;;;;;;;;;4996590;28;20219;-78
2022/03/21 06:23:06;;;;;;;24.70;16.38;;;;;;;;;;4983404;28;20461;-78
2022/03/21 06:25:34;;;;;;;23.77;17.17;;;;;;;;;;4993448;28;20650;-78
2022/03/21 06:28:01;;;;;;;22.60;16.77;;;;;;;;;;4994294;28;20619;-78
2022/03/21 06:30:29;;;;;;;24.90;16.67;;;;;;;;;;4994664;28;20263;-78
2022/03/21 06:32:56;;;;;;;21.58;15.93;;;;;;;;;;4996009;28;20251;-78
2022/03/21 06:35:23;;;;;;;22.20;15.82;;;;;;;;;;5001529;28;20677;-78
2022/03/21 06:37:52;;;;;;;19.70;14.83;;;;;;;;;;4999333;28;20251;-78
2022/03/21 06:40:20;;;;;;;21.83;15.73;;;;;;;;;;4994253;28;20547;-77
2022/03/21 06:42:47;;;;;;;21.20;16.20;;;;;;;;;;4993716;28;20582;-78
2022/03/21 06:45:15;;;;;;;20.93;15.20;;;;;;;;;;4993964;28;20205;-79
2022/03/21 06:47:42;;;;;;;18.27;14.70;;;;;;;;;;5013118;28;20525;-77
2022/03/21 06:50:10;;;;;;;17.00;14.60;;;;;;;;;;5014270;28;20459;-77
2022/03/21 06:52:38;;;;;;;21.43;16.03;;;;;;;;;;4997508;28;20991;-77
2022/03/21 06:55:08;;;;;;;19.73;15.67;;;;;;;;;;4995640;28;20480;-76
2022/03/21 06:57:36;;;;;;;21.10;15.43;;;;;;;;;;5000718;28;20802;-78
2022/03/21 07:00:05;;;;;;;20.80;15.40;;;;;;;;;;4998671;28;20813;-78
2022/03/21 07:02:32;;;;;;;21.33;15.07;;;;;;;;;;4999930;28;20482;-78
2022/03/21 07:05:00;;;;;;;19.50;15.00;;;;;;;;;;5011520;28;20458;-77
2022/03/21 07:07:28;;;;;;;18.50;14.50;;;;;;;;;;5012734;28;20445;-77
2022/03/21 07:09:55;;;;;;;25.20;16.80;;;;;;;;;;5012752;28;20435;-77
2022/03/21 07:12:24;;;;;;;18.97;14.33;;;;;;;;;;5002979;28;21020;-78
2022/03/21 07:14:51;;;;;;;18.30;14.30;;;;;;;;;;4999094;28;20714;-77
2022/03/21 07:17:19;;;;;;;20.20;15.97;;;;;;;;;;4998877;28;20455;-80
2022/03/21 07:19:46;;;;;;;21.13;14.37;;;;;;;;;;5008672;28;20447;-80
2022/03/21 07:22:14;;;;;;;18.40;14.27;;;;;;;;;;5011338;28;20494;-78
2022/03/21 07:24:41;;;;;;;19.10;13.83;;;;;;;;;;5012637;28;20447;-82
2022/03/21 07:27:09;;;;;;;20.20;14.60;;;;;;;;;;5011845;28;20930;-81
2022/03/21 07:29:37;;;;;;;16.53;14.40;;;;;;;;;;5012400;28;20447;-79
2022/03/21 07:32:05;;;;;;;22.53;15.43;;;;;;;;;;5002193;28;20524;-77
2022/03/21 07:34:32;;;;;;;17.63;14.80;;;;;;;;;;5000128;28;20466;-78
2022/03/21 07:36:59;;;;;;;16.93;14.57;;;;;;;;;;5003897;28;21029;-77
2022/03/21 07:39:26;;;;;;;19.23;15.07;;;;;;;;;;5012058;28;20447;-80
2022/03/21 07:41:59;;;;;;;21.00;14.47;;;;;;;;;;4999306;28;20506;-77
2022/03/21 07:49:50;;;;;;;20.10;14.87;;;;;;;;;;4980916;28;20459;-76
2022/03/21 07:52:19;;;;;;;18.20;14.80;;;;;;;;;;4999851;28;20460;-77
2022/03/21 07:54:46;;;;;;;19.13;14.13;;;;;;;;;;4991325;28;20983;-76
2022/03/21 07:57:14;;;;;;;19.27;14.57;;;;;;;;;;5011578;28;20962;-77
2022/03/21 07:59:41;;;;;;;19.20;14.77;;;;;;;;;;5010407;28;20462;-77
2022/03/21 08:02:09;;;;;;;15.97;13.47;;;;;;;;;;5012438;28;20459;-76
2022/03/21 08:04:36;;;;;;;20.07;15.60;;;;;;;;;;5009201;28;20475;-77
2022/03/21 08:07:04;;;;;;;19.60;15.30;;;;;;;;;;4994565;28;20454;-76
2022/03/21 08:09:31;;;;;;;18.10;15.00;;;;;;;;;;4994264;28;20451;-76
2022/03/21 08:12:00;;;;;;;17.80;14.30;;;;;;;;;;4996185;28;20463;-79
2022/03/21 08:14:27;;;;;;;21.13;15.43;;;;;;;;;;4999703;28;20565;-78
2022/03/21 08:16:54;;;;;;;18.10;14.40;;;;;;;;;;4996074;28;20987;-75
2022/03/21 08:19:24;;;;;;;21.43;16.07;;;;;;;;;;4992236;28;20455;-75
2022/03/21 08:21:51;;;;;;;17.93;14.40;;;;;;;;;;4991867;28;20482;-76
2022/03/21 08:24:18;;;;;;;18.80;15.40;;;;;;;;;;4992166;28;20480;-79
2022/03/21 08:26:45;;;;;;;16.53;14.10;;;;;;;;;;4992562;28;20447;-78
2022/03/21 08:29:12;;;;;;;18.40;13.60;;;;;;;;;;5008902;28;20459;-75
2022/03/21 08:31:39;;;;;;;22.30;13.97;;;;;;;;;;5013344;28;20447;-76
2022/03/21 08:34:07;;;;;;;16.57;13.70;;;;;;;;;;5011636;28;20558;-77
2022/03/21 08:36:35;;;;;;;20.00;15.13;;;;;;;;;;4999391;28;20534;-77
2022/03/21 08:39:03;;;;;;;19.13;14.60;;;;;;;;;;5001958;28;20435;-76
2022/03/21 08:41:30;;;;;;;19.03;15.83;;;;;;;;;;5010855;28;20450;-77
2022/03/21 08:43:57;;;;;;;16.47;14.03;;;;;;;;;;4993627;28;20478;-76
2022/03/21 08:46:26;;;;;;;18.80;14.67;;;;;;;;;;5011265;28;20492;-76
2022/03/21 08:51:37;;;;;;;18.33;14.50;;;;;;;;;;5011397;28;20559;-76
2022/03/21 08:54:04;;;;;;;18.80;15.00;;;;;;;;;;5012989;28;20439;-77
2022/03/21 08:56:32;;;;;;;16.93;13.60;;;;;;;;;;5011505;28;20529;-79
2022/03/21 08:58:59;;;;;;;19.27;14.30;;;;;;;;;;4998874;28;20475;-75
2022/03/21 09:01:27;;;;;;;18.37;16.27;;;;;;;;;;5001257;28;20460;-76
2022/03/21 09:03:55;;;;;;;18.80;14.60;;;;;;;;;;5010402;28;20572;-75
2022/03/21 09:06:22;;;;;;;19.40;15.13;;;;;;;;;;5010701;28;20452;-76
2022/03/21 09:08:51;;;;;;;18.87;15.77;;;;;;;;;;5011039;28;20448;-76
2022/03/21 09:11:18;;;;;;;17.87;14.80;;;;;;;;;;4993779;28;20453;-76
2022/03/21 09:13:46;;;;;;;16.67;14.33;;;;;;;;;;5011757;28;20471;-77
2022/03/21 09:16:13;;;;;;;18.73;15.43;;;;;;;;;;5012802;28;20449;-75
2022/03/21 09:18:40;;;;;;;18.13;15.00;;;;;;;;;;5012903;28;20446;-76
2022/03/21 09:21:08;;;;;;;16.97;14.20;;;;;;;;;;5000251;28;20791;-75
2022/03/21 09:23:35;;;;;;;17.90;15.70;;;;;;;;;;4992043;28;21014;-76
2022/03/21 09:26:06;;;;;;;17.27;14.80;;;;;;;;;;4989585;28;20451;-74
2022/03/21 09:28:36;;;;;;;20.53;15.90;;;;;;;;;;4989414;28;21074;-76
2022/03/21 09:31:06;;;;;;;20.57;16.60;;;;;;;;;;4989835;28;20455;-75
2022/03/21 09:33:33;;;;;;;19.03;14.43;;;;;;;;;;4990191;28;20815;-76
2022/03/21 09:36:00;;;;;;;20.87;16.10;;;;;;;;;;4991900;28;20488;-75
2022/03/21 09:38:27;;;;;;;18.47;16.40;;;;;;;;;;4993011;28;20450;-76
2022/03/21 09:40:55;;;;;;;20.80;14.87;;;;;;;;;;4995227;28;20450;-76
2022/03/21 09:43:24;;;;;;;21.07;16.07;;;;;;;;;;5000847;28;20478;-76
2022/03/21 09:45:52;;;;;;;16.93;15.13;;;;;;;;;;5002434;28;20431;-75
2022/03/21 09:48:20;;;;;;;21.47;16.10;;;;;;;;;;5011555;28;20460;-76
2022/03/21 09:50:51;;;;;;;19.00;15.67;;;;;;;;;;5014248;28;20446;-76
2022/03/21 09:53:18;;;;;;;19.80;15.00;;;;;;;;;;5012940;28;20473;-75
2022/03/21 09:55:46;;;;;;;18.67;15.70;;;;;;;;;;5014762;28;20910;-75
2022/03/21 09:58:13;;;;;;;16.80;14.63;;;;;;;;;;5013808;28;20442;-75
2022/03/21 10:00:44;;;;;;;16.80;13.47;;;;;;;;;;5015046;28;20451;-77
2022/03/21 10:03:11;;;;;;;17.80;14.90;;;;;;;;;;5015854;28;20489;-76
2022/03/21 10:05:39;;;;;;;21.43;16.80;;;;;;;;;;5007310;28;20455;-75
2022/03/21 10:08:21;;;;;;;21.93;15.37;;;;;;;;;;5000650;28;20808;-76
2022/03/21 10:11:03;;;;;;;18.30;15.53;;;;;;;;;;5010721;28;20469;-76
2022/03/21 10:13:31;;;;;;;20.50;16.33;;;;;;;;;;5012763;28;20468;-76
2022/03/21 10:16:13;;;;;;;22.57;15.60;;;;;;;;;;5013921;28;20834;-75
2022/03/21 10:18:57;;;;;;;22.20;15.80;;;;;;;;;;5013510;28;20442;-76
2022/03/21 10:21:26;;;;;;;19.13;15.83;;;;;;;;;;5014965;28;20493;-76
2022/03/21 10:23:58;;;;;;;20.43;15.00;;;;;;;;;;5015541;28;20994;-76
2022/03/21 10:26:26;;;;;;;18.93;16.30;;;;;;;;;;4998376;28;20450;-76
2022/03/21 10:28:54;;;;;;;20.03;17.30;;;;;;;;;;5003639;28;20453;-76
2022/03/21 10:31:34;;;;;;;20.27;16.50;;;;;;;;;;5001676;28;20859;-76
2022/03/21 10:34:01;;;;;;;18.83;15.00;;;;;;;;;;4996080;28;20442;-77
2022/03/21 10:36:30;;;;;;;20.50;15.50;;;;;;;;;;5013266;28;20958;-76
2022/03/21 10:39:07;;;;;;;17.63;14.57;;;;;;;;;;5013182;28;20454;-75
2022/03/21 10:41:35;;;;;;;18.13;15.87;;;;;;;;;;5013750;28;20554;-77
2022/03/21 10:44:03;;;;;;;20.37;16.23;;;;;;;;;;4996911;28;20486;-74
2022/03/21 10:46:30;;;;;;;19.23;14.90;;;;;;;;;;5002897;28;20458;-76
2022/03/21 10:49:06;;;;;;;19.93;16.27;;;;;;;;;;4997781;28;20911;-77
2022/03/21 10:51:48;;;;;;;18.30;15.07;;;;;;;;;;5005125;28;20454;-76
2022/03/21 10:54:30;;;;;;;23.80;15.60;;;;;;;;;;4994838;28;20810;-76
2022/03/21 10:56:58;;;;;;;18.70;15.60;;;;;;;;;;4994122;28;20450;-76
2022/03/21 10:59:25;;;;;;;20.83;17.03;;;;;;;;;;5010441;28;20443;-76
2022/03/21 11:02:10;;;;;;;21.80;15.37;;;;;;;;;;5010065;28;20995;-77
2022/03/21 11:04:38;;;;;;;19.03;15.60;;;;;;;;;;5012779;28;20838;-75
2022/03/21 11:07:06;;;;;;;17.93;14.60;;;;;;;;;;5007572;28;20957;-76
2022/03/21 11:09:33;;;;;;;22.07;14.77;;;;;;;;;;4999794;28;20432;-77
2022/03/21 11:12:02;;;;;;;22.27;14.87;;;;;;;;;;5007243;28;20470;-76
2022/03/21 11:14:30;;;;;;;18.77;14.70;;;;;;;;;;5012624;28;20458;-76
2022/03/21 11:16:58;;;;;;;18.47;14.73;;;;;;;;;;5012758;28;20458;-77
2022/03/21 11:19:25;;;;;;;20.57;14.63;;;;;;;;;;5013064;28;20446;-79
2022/03/21 11:21:53;;;;;;;14.80;13.17;;;;;;;;;;5013073;28;20477;-76
2022/03/21 11:24:20;;;;;;;19.33;14.37;;;;;;;;;;5014171;28;20490;-77
2022/03/21 11:26:52;;;;;;;17.47;14.80;;;;;;;;;;5006606;28;20502;-75
2022/03/21 11:29:29;;;;;;;18.47;14.60;;;;;;;;;;5000275;28;20530;-76
2022/03/21 11:32:03;;;;;;;16.90;14.20;;;;;;;;;;4994663;28;20479;-77
2022/03/21 11:34:40;;;;;;;19.63;16.10;;;;;;;;;;4992947;28;20443;-79
2022/03/21 11:37:07;;;;;;;19.30;15.90;;;;;;;;;;5011688;28;20798;-77
2022/03/21 11:39:35;;;;;;;18.20;14.87;;;;;;;;;;5012013;28;20440;-78
2022/03/21 11:42:06;;;;;;;17.87;14.20;;;;;;;;;;5008427;28;21002;-76
2022/03/21 11:44:34;;;;;;;15.13;12.83;;;;;;;;;;4998929;28;20566;-77
2022/03/21 11:47:17;;;;;;;20.60;14.60;;;;;;;;;;5000174;28;20440;-78
2022/03/21 11:49:45;;;;;;;17.20;14.70;;;;;;;;;;4977504;28;20486;-80
2022/03/21 11:52:12;;;;;;;15.70;13.20;;;;;;;;;;4992315;28;20460;-78
2022/03/21 11:54:39;;;;;;;19.90;13.77;;;;;;;;;;4992457;28;20443;-76
2022/03/21 11:57:07;;;;;;;18.13;14.33;;;;;;;;;;4975704;28;20444;-78
2022/03/21 11:59:49;;;;;;;17.33;13.30;;;;;;;;;;4983297;28;20891;-75
2022/03/21 12:02:31;;;;;;;18.13;13.77;;;;;;;;;;4998966;28;20462;-78
2022/03/21 12:05:02;;;;;;;18.20;14.30;;;;;;;;;;5012216;28;20497;-77
2022/03/21 12:07:30;;;;;;;16.17;11.93;;;;;;;;;;5003172;28;20471;-75
2022/03/21 12:09:58;;;;;;;21.40;13.43;;;;;;;;;;4999782;28;20435;-76
2022/03/21 12:12:46;;;;;;;15.67;11.97;;;;;;;;;;4993380;28;21004;-76
2022/03/21 12:15:15;;;;;;;13.03;11.00;;;;;;;;;;4977966;28;20456;-77
2022/03/21 12:17:48;;;;;;;17.47;11.83;;;;;;;;;;4974860;28;20848;-79
2022/03/21 12:20:18;;;;;;;15.67;10.43;;;;;;;;;;4992431;28;20448;-75
2022/03/21 12:22:48;;;;;;;13.80;10.73;;;;;;;;;;5000452;28;20494;-75
2022/03/21 12:25:48;;;;;;;11.90;9.53;;;;;;;;;;5106681;27;1273293;-76
2022/03/21 12:28:20;;;;;;;12.53;10.10;;;;;;;;;;5111586;28;20794;-77
2022/03/21 12:30:48;;;;;;;13.20;9.77;;;;;;;;;;5107346;28;20477;-79
2022/03/21 12:33:30;;;;;;;15.43;9.70;;;;;;;;;;5108593;28;20514;-76
2022/03/21 12:36:04;;;;;;;12.87;10.10;;;;;;;;;;5090868;28;20431;-80
2022/03/21 12:38:33;;;;;;;11.03;8.40;;;;;;;;;;5107062;28;20992;-76
2022/03/21 12:41:03;;;;;;;12.07;10.10;;;;;;;;;;5106916;28;20532;-78
2022/03/21 12:43:31;;;;;;;12.70;9.67;;;;;;;;;;5089277;28;20490;-79
2022/03/21 12:46:09;;;;;;;17.00;9.90;;;;;;;;;;5085984;28;21007;-75
2022/03/21 12:48:37;;;;;;;17.67;9.50;;;;;;;;;;5088547;28;20426;-75
2022/03/21 12:51:05;;;;;;;13.10;8.93;;;;;;;;;;5070754;28;20438;-77
2022/03/21 12:53:37;;;;;;;12.27;10.23;;;;;;;;;;5095432;28;20476;-76
2022/03/21 12:56:07;;;;;;;11.60;8.93;;;;;;;;;;5102610;28;20440;-78
2022/03/21 12:58:35;;;;;;;10.30;8.00;;;;;;;;;;5105266;28;20428;-76
2022/03/21 13:01:03;;;;;;;9.80;8.70;;;;;;;;;;5107059;28;20405;-77
2022/03/21 13:03:30;;;;;;;11.63;9.30;;;;;;;;;;5088727;28;20471;-77
2022/03/21 13:11:23;;;;;;;12.70;10.10;;;;;;;;;;5107259;28;20435;-76
2022/03/21 13:13:53;;;;;;;16.93;11.03;;;;;;;;;;5090396;28;20454;-76
2022/03/21 13:16:21;;;;;;;22.90;12.07;;;;;;;;;;5104341;28;20428;-80
2022/03/21 13:18:48;;;;;;;12.47;10.93;;;;;;;;;;5095436;28;20439;-75
2022/03/21 13:21:16;;;;;;;12.43;9.70;;;;;;;;;;5103614;28;20815;-79
2022/03/21 13:23:44;;;;;;;17.63;10.77;;;;;;;;;;5106053;28;20469;-76
2022/03/21 13:26:13;;;;;;;12.60;9.33;;;;;;;;;;5105804;28;20436;-75
2022/03/21 13:28:42;;;;;;;12.17;9.80;;;;;;;;;;5088201;28;20423;-76
2022/03/21 13:31:11;;;;;;;11.17;9.20;;;;;;;;;;5106965;28;20444;-75
2022/03/21 13:33:39;;;;;;;11.03;8.07;;;;;;;;;;5085840;28;20628;-78
2022/03/21 13:36:08;;;;;;;9.93;8.67;;;;;;;;;;5060890;28;20975;-73
2022/03/21 13:38:37;;;;;;;9.77;8.77;;;;;;;;;;5059497;28;20414;-75
2022/03/21 13:41:13;;;;;;;11.57;8.50;;;;;;;;;;5088641;28;20436;-74
2022/03/21 13:43:41;;;;;;;13.00;9.90;;;;;;;;;;5089004;28;20435;-74
2022/03/21 13:46:09;;;;;;;14.90;9.33;;;;;;;;;;5092031;28;20419;-74
2022/03/21 13:48:38;;;;;;;11.03;8.53;;;;;;;;;;5091925;28;20436;-80
2022/03/21 13:51:07;;;;;;;12.50;8.70;;;;;;;;;;5091962;28;20545;-77
2022/03/21 13:53:37;;;;;;;8.60;7.60;;;;;;;;;;5074695;28;20433;-75
2022/03/21 13:56:04;;;;;;;11.17;9.20;;;;;;;;;;5093616;28;20474;-75
2022/03/21 13:58:34;;;;;;;11.40;8.07;;;;;;;;;;5093685;28;20439;-77
2022/03/21 14:01:05;;;;;;;13.90;9.13;;;;;;;;;;5093402;28;20820;-77
2022/03/21 14:03:33;;;;;;;11.57;8.13;;;;;;;;;;5088411;28;20514;-77
2022/03/21 14:06:00;;;;;;;11.30;7.97;;;;;;;;;;5089027;28;20515;-74
2022/03/21 14:08:28;;;;;;;11.40;8.60;;;;;;;;;;5091608;28;20654;-78
2022/03/21 14:11:04;;;;;;;12.13;8.83;;;;;;;;;;5091260;28;20627;-75
2022/03/21 14:13:34;;;;;;;13.37;9.13;;;;;;;;;;5073681;28;20880;-75
2022/03/21 14:16:02;;;;;;;10.70;8.73;;;;;;;;;;5074137;28;20926;-76
2022/03/21 14:18:30;;;;;;;10.67;8.23;;;;;;;;;;5092853;28;20463;-76
2022/03/21 14:21:00;;;;;;;9.87;7.27;;;;;;;;;;5093374;28;20413;-75
2022/03/21 14:23:27;;;;;;;9.87;8.13;;;;;;;;;;5075353;28;20512;-76
2022/03/21 14:28:35;;;;;;;12.40;8.57;;;;;;;;;;5086935;28;20402;-75
2022/03/21 14:31:05;;;;;;;10.90;8.53;;;;;;;;;;5090775;28;20786;-76
2022/03/21 14:33:33;;;;;;;13.30;9.20;;;;;;;;;;5072957;28;20493;-78
2022/03/21 14:36:00;;;;;;;12.73;8.93;;;;;;;;;;5091050;28;20958;-76
2022/03/21 14:38:27;;;;;;;8.83;7.87;;;;;;;;;;5091430;28;20925;-76
2022/03/21 14:40:55;;;;;;;12.10;8.30;;;;;;;;;;5092327;28;20446;-80
2022/03/21 14:43:25;;;;;;;9.93;8.87;;;;;;;;;;5092869;28;20471;-78
2022/03/21 14:45:53;;;;;;;10.37;8.50;;;;;;;;;;5092755;28;20464;-77
2022/03/21 14:48:22;;;;;;;9.90;8.50;;;;;;;;;;5088655;28;20435;-77
2022/03/21 14:50:50;;;;;;;11.43;8.03;;;;;;;;;;5068949;28;20973;-77
2022/03/21 14:53:17;;;;;;;12.77;9.37;;;;;;;;;;5089266;28;20420;-78
2022/03/21 14:55:44;;;;;;;9.33;7.70;;;;;;;;;;5090808;28;20442;-78
2022/03/21 14:58:11;;;;;;;9.13;7.63;;;;;;;;;;5072759;28;20486;-77
2022/03/21 15:00:40;;;;;;;11.30;8.20;;;;;;;;;;5090751;28;20418;-78
2022/03/21 15:03:08;;;;;;;16.03;7.90;;;;;;;;;;5090528;28;20470;-78